sensor_id;sensor_type;location;lat;lon;timestamp;temperature;humidity
13091;DHT22;6611;52.604;13.438;2024-01-27T00:03:18;5.94;74.62
13091;DHT22;6611;52.604;13.438;2024-01-27T00:08:21;5.92;74.36
13091;DHT22;6611;52.604;13.438;2024-01-27T00:13:23;5.98;74.13
13091;DHT22;6611;52.604;13.438;2024-01-27T00:18:24;5.92;73.33
13091;DHT22;6611;52.604;13.438;2024-01-27T00:23:27;5.87;73.13
13091;DHT22;6611;52.604;13.438;2024-01-27T00:28:29;5.84;73.42
13091;DHT22;6611;52.604;13.438;2024-01-27T00:33:31;5.79;74.00
13091;DHT22;6611;52.604;13.438;2024-01-27T00:38:34;5.82;73.93
13091;DHT22;6611;52.604;13.438;2024-01-27T00:43:35;5.81;73.04
13091;DHT22;6611;52.604;13.438;2024-01-27T00:48:37;5.84;73.05
13091;DHT22;6611;52.604;13.438;2024-01-27T00:53:40;5.75;73.08
13091;DHT22;6611;52.604;13.438;2024-01-27T00:58:42;5.77;73.39
13091;DHT22;6611;52.604;13.438;2024-01-27T01:03:44;5.74;73.03
13091;DHT22;6611;52.604;13.438;2024-01-27T01:08:47;5.71;72.82
13091;DHT22;6611;52.604;13.438;2024-01-27T01:13:49;5.73;72.99
13091;DHT22;6611;52.604;13.438;2024-01-27T01:18:50;5.79;72.48
13091;DHT22;6611;52.604;13.438;2024-01-27T01:23:53;5.81;72.31
13091;DHT22;6611;52.604;13.438;2024-01-27T01:28:55;5.79;72.58
13091;DHT22;6611;52.604;13.438;2024-01-27T01:33:57;5.78;72.23
13091;DHT22;6611;52.604;13.438;2024-01-27T01:39:00;5.71;72.55
13091;DHT22;6611;52.604;13.438;2024-01-27T01:44:01;5.64;72.22
13091;DHT22;6611;52.604;13.438;2024-01-27T01:49:03;5.64;72.49
13091;DHT22;6611;52.604;13.438;2024-01-27T01:54:06;5.65;72.21
13091;DHT22;6611;52.604;13.438;2024-01-27T01:59:08;5.65;72.46
13091;DHT22;6611;52.604;13.438;2024-01-27T02:04:10;5.63;72.00
13091;DHT22;6611;52.604;13.438;2024-01-27T02:09:13;5.64;72.91
13091;DHT22;6611;52.604;13.438;2024-01-27T02:14:14;5.70;72.78
13091;DHT22;6611;52.604;13.438;2024-01-27T02:19:17;5.58;73.62
13091;DHT22;6611;52.604;13.438;2024-01-27T02:24:20;5.61;73.99
13091;DHT22;6611;52.604;13.438;2024-01-27T02:29:22;5.65;74.09
13091;DHT22;6611;52.604;13.438;2024-01-27T02:34:24;5.70;73.60
13091;DHT22;6611;52.604;13.438;2024-01-27T02:39:27;5.71;73.63
13091;DHT22;6611;52.604;13.438;2024-01-27T02:44:28;5.74;73.54
13091;DHT22;6611;52.604;13.438;2024-01-27T02:49:30;5.79;73.68
13091;DHT22;6611;52.604;13.438;2024-01-27T02:54:33;5.70;74.24
13091;DHT22;6611;52.604;13.438;2024-01-27T02:59:34;5.73;74.40
13091;DHT22;6611;52.604;13.438;2024-01-27T03:04:36;5.78;74.30
13091;DHT22;6611;52.604;13.438;2024-01-27T03:09:39;5.78;74.09
13091;DHT22;6611;52.604;13.438;2024-01-27T03:14:41;5.78;74.15
13091;DHT22;6611;52.604;13.438;2024-01-27T03:19:42;5.81;74.25
13091;DHT22;6611;52.604;13.438;2024-01-27T03:24:45;5.71;74.27
13091;DHT22;6611;52.604;13.438;2024-01-27T03:29:47;5.73;74.36
13091;DHT22;6611;52.604;13.438;2024-01-27T03:34:48;5.64;74.38
13091;DHT22;6611;52.604;13.438;2024-01-27T03:39:51;5.61;74.36
13091;DHT22;6611;52.604;13.438;2024-01-27T03:44:53;5.50;74.72
13091;DHT22;6611;52.604;13.438;2024-01-27T03:49:55;5.40;75.52
13091;DHT22;6611;52.604;13.438;2024-01-27T03:54:58;5.35;75.59
13091;DHT22;6611;52.604;13.438;2024-01-27T03:59:59;5.25;75.75
13091;DHT22;6611;52.604;13.438;2024-01-27T04:05:01;5.05;76.40
13091;DHT22;6611;52.604;13.438;2024-01-27T04:10:05;5.11;76.35
13091;DHT22;6611;52.604;13.438;2024-01-27T04:15:07;5.05;76.71
13091;DHT22;6611;52.604;13.438;2024-01-27T04:20:10;4.91;77.02
13091;DHT22;6611;52.604;13.438;2024-01-27T04:25:13;4.89;77.47
13091;DHT22;6611;52.604;13.438;2024-01-27T04:30:15;4.89;77.79
13091;DHT22;6611;52.604;13.438;2024-01-27T04:35:16;4.88;77.88
13091;DHT22;6611;52.604;13.438;2024-01-27T04:40:20;4.94;77.82
13091;DHT22;6611;52.604;13.438;2024-01-27T04:45:21;4.99;77.71
13091;DHT22;6611;52.604;13.438;2024-01-27T04:50:23;4.99;77.94
13091;DHT22;6611;52.604;13.438;2024-01-27T04:55:27;4.95;78.60
13091;DHT22;6611;52.604;13.438;2024-01-27T05:00:28;5.04;78.15
13091;DHT22;6611;52.604;13.438;2024-01-27T05:05:30;5.02;78.32
13091;DHT22;6611;52.604;13.438;2024-01-27T05:10:33;4.99;78.41
13091;DHT22;6611;52.604;13.438;2024-01-27T05:15:35;4.98;78.47
13091;DHT22;6611;52.604;13.438;2024-01-27T05:20:37;4.94;78.83
13091;DHT22;6611;52.604;13.438;2024-01-27T05:25:40;4.95;78.82
13091;DHT22;6611;52.604;13.438;2024-01-27T05:30:41;4.99;78.82
13091;DHT22;6611;52.604;13.438;2024-01-27T05:35:44;5.02;78.62
13091;DHT22;6611;52.604;13.438;2024-01-27T05:40:47;5.02;78.78
13091;DHT22;6611;52.604;13.438;2024-01-27T05:45:50;4.98;79.31
13091;DHT22;6611;52.604;13.438;2024-01-27T05:50:55;4.99;79.41
13091;DHT22;6611;52.604;13.438;2024-01-27T05:55:58;5.09;79.40
13091;DHT22;6611;52.604;13.438;2024-01-27T06:01:00;5.22;79.01
13091;DHT22;6611;52.604;13.438;2024-01-27T06:06:02;5.28;78.65
13091;DHT22;6611;52.604;13.438;2024-01-27T06:11:05;5.30;78.52
13091;DHT22;6611;52.604;13.438;2024-01-27T06:16:07;5.35;78.58
13091;DHT22;6611;52.604;13.438;2024-01-27T06:21:10;5.40;78.12
13091;DHT22;6611;52.604;13.438;2024-01-27T06:26:13;5.42;78.24
13091;DHT22;6611;52.604;13.438;2024-01-27T06:31:15;5.50;77.93
13091;DHT22;6611;52.604;13.438;2024-01-27T06:36:17;5.50;77.92
13091;DHT22;6611;52.604;13.438;2024-01-27T06:41:20;5.57;78.18
13091;DHT22;6611;52.604;13.438;2024-01-27T06:46:22;5.50;77.97
13091;DHT22;6611;52.604;13.438;2024-01-27T06:51:24;5.58;78.14
13091;DHT22;6611;52.604;13.438;2024-01-27T06:56:27;5.48;78.84
13091;DHT22;6611;52.604;13.438;2024-01-27T07:01:28;5.56;78.27
13091;DHT22;6611;52.604;13.438;2024-01-27T07:06:30;5.63;78.31
13091;DHT22;6611;52.604;13.438;2024-01-27T07:11:33;5.67;78.06
13091;DHT22;6611;52.604;13.438;2024-01-27T07:16:35;6.02;78.37
13091;DHT22;6611;52.604;13.438;2024-01-27T07:21:36;6.06;77.44
13091;DHT22;6611;52.604;13.438;2024-01-27T07:26:40;5.91;77.81
13091;DHT22;6611;52.604;13.438;2024-01-27T07:31:42;5.82;78.24
13091;DHT22;6611;52.604;13.438;2024-01-27T07:36:44;5.79;78.12
13091;DHT22;6611;52.604;13.438;2024-01-27T07:41:47;5.77;78.26
13091;DHT22;6611;52.604;13.438;2024-01-27T07:46:50;5.81;78.33
13091;DHT22;6611;52.604;13.438;2024-01-27T07:51:52;5.81;78.13
13091;DHT22;6611;52.604;13.438;2024-01-27T07:56:55;5.88;77.87
13091;DHT22;6611;52.604;13.438;2024-01-27T08:01:57;5.88;77.91
13091;DHT22;6611;52.604;13.438;2024-01-27T08:06:58;5.88;78.14
13091;DHT22;6611;52.604;13.438;2024-01-27T08:12:08;5.92;78.17
13091;DHT22;6611;52.604;13.438;2024-01-27T08:17:09;6.06;77.35
13091;DHT22;6611;52.604;13.438;2024-01-27T08:22:11;6.09;77.38
13091;DHT22;6611;52.604;13.438;2024-01-27T08:27:14;6.15;77.19
13091;DHT22;6611;52.604;13.438;2024-01-27T08:32:16;6.20;77.16
13091;DHT22;6611;52.604;13.438;2024-01-27T08:37:19;6.33;76.61
13091;DHT22;6611;52.604;13.438;2024-01-27T08:42:22;6.36;76.73
13091;DHT22;6611;52.604;13.438;2024-01-27T08:47:24;6.40;76.68
13091;DHT22;6611;52.604;13.438;2024-01-27T08:52:25;6.55;76.00
13091;DHT22;6611;52.604;13.438;2024-01-27T08:57:28;6.60;75.78
13091;DHT22;6611;52.604;13.438;2024-01-27T09:02:30;6.65;75.51
13091;DHT22;6611;52.604;13.438;2024-01-27T09:07:33;6.67;75.78
13091;DHT22;6611;52.604;13.438;2024-01-27T09:12:36;6.67;76.49
13091;DHT22;6611;52.604;13.438;2024-01-27T09:17:38;6.78;75.73
13091;DHT22;6611;52.604;13.438;2024-01-27T09:22:40;6.85;75.54
13091;DHT22;6611;52.604;13.438;2024-01-27T09:27:44;6.85;75.41
13091;DHT22;6611;52.604;13.438;2024-01-27T09:32:45;6.85;75.28
13091;DHT22;6611;52.604;13.438;2024-01-27T09:37:47;6.93;74.93
13091;DHT22;6611;52.604;13.438;2024-01-27T09:42:51;6.89;75.62
13091;DHT22;6611;52.604;13.438;2024-01-27T09:47:56;7.06;75.04
13091;DHT22;6611;52.604;13.438;2024-01-27T09:52:58;7.09;74.52
13091;DHT22;6611;52.604;13.438;2024-01-27T09:58:02;7.09;74.74
13091;DHT22;6611;52.604;13.438;2024-01-27T10:03:06;7.17;74.26
13091;DHT22;6611;52.604;13.438;2024-01-27T10:08:10;7.22;74.38
13091;DHT22;6611;52.604;13.438;2024-01-27T10:13:14;7.24;74.37
13091;DHT22;6611;52.604;13.438;2024-01-27T10:18:18;7.33;73.53
13091;DHT22;6611;52.604;13.438;2024-01-27T10:23:20;7.23;73.75
13091;DHT22;6611;52.604;13.438;2024-01-27T10:28:23;7.43;72.84
13091;DHT22;6611;52.604;13.438;2024-01-27T10:33:24;7.54;72.28
13091;DHT22;6611;52.604;13.438;2024-01-27T10:38:36;7.99;72.05
13091;DHT22;6611;52.604;13.438;2024-01-27T10:43:39;8.27;71.14
13091;DHT22;6611;52.604;13.438;2024-01-27T10:48:42;8.47;69.68
13091;DHT22;6611;52.604;13.438;2024-01-27T10:53:49;8.26;68.62
13091;DHT22;6611;52.604;13.438;2024-01-27T10:58:53;7.83;70.40
13091;DHT22;6611;52.604;13.438;2024-01-27T11:03:56;7.76;71.04
13091;DHT22;6611;52.604;13.438;2024-01-27T11:08:59;7.72;71.79
13091;DHT22;6611;52.604;13.438;2024-01-27T11:14:03;7.74;71.95
13091;DHT22;6611;52.604;13.438;2024-01-27T11:19:04;7.61;72.43
13091;DHT22;6611;52.604;13.438;2024-01-27T11:24:14;7.67;72.55
13091;DHT22;6611;52.604;13.438;2024-01-27T11:29:17;7.71;72.09
13091;DHT22;6611;52.604;13.438;2024-01-27T11:34:20;7.68;72.15
13091;DHT22;6611;52.604;13.438;2024-01-27T11:39:25;7.69;70.90
13091;DHT22;6611;52.604;13.438;2024-01-27T11:44:28;7.59;71.44
13091;DHT22;6611;52.604;13.438;2024-01-27T11:49:30;7.67;71.45
13091;DHT22;6611;52.604;13.438;2024-01-27T11:54:32;7.69;71.13
13091;DHT22;6611;52.604;13.438;2024-01-27T11:59:35;7.61;71.84
13091;DHT22;6611;52.604;13.438;2024-01-27T12:04:36;7.65;71.87
13091;DHT22;6611;52.604;13.438;2024-01-27T12:09:38;7.74;72.43
13091;DHT22;6611;52.604;13.438;2024-01-27T12:14:45;7.69;72.12
13091;DHT22;6611;52.604;13.438;2024-01-27T12:19:47;7.68;72.96
13091;DHT22;6611;52.604;13.438;2024-01-27T12:24:49;7.83;72.75
13091;DHT22;6611;52.604;13.438;2024-01-27T12:29:52;7.74;73.39
13091;DHT22;6611;52.604;13.438;2024-01-27T12:34:54;7.71;73.73
13091;DHT22;6611;52.604;13.438;2024-01-27T12:39:56;7.65;73.70
13091;DHT22;6611;52.604;13.438;2024-01-27T12:44:59;7.59;73.22
13091;DHT22;6611;52.604;13.438;2024-01-27T12:50:00;7.59;73.17
13091;DHT22;6611;52.604;13.438;2024-01-27T12:55:02;7.62;72.78
13091;DHT22;6611;52.604;13.438;2024-01-27T13:00:07;7.71;72.41
13091;DHT22;6611;52.604;13.438;2024-01-27T13:05:10;7.89;72.21
13091;DHT22;6611;52.604;13.438;2024-01-27T13:10:12;8.29;71.23
13091;DHT22;6611;52.604;13.438;2024-01-27T13:15:15;8.92;70.19
13091;DHT22;6611;52.604;13.438;2024-01-27T13:20:17;8.84;69.55
13091;DHT22;6611;52.604;13.438;2024-01-27T13:25:18;9.06;68.91
13091;DHT22;6611;52.604;13.438;2024-01-27T13:30:21;8.93;68.79
13091;DHT22;6611;52.604;13.438;2024-01-27T13:35:24;8.73;69.34
13091;DHT22;6611;52.604;13.438;2024-01-27T13:40:26;8.33;69.98
13091;DHT22;6611;52.604;13.438;2024-01-27T13:45:29;8.06;70.99
13091;DHT22;6611;52.604;13.438;2024-01-27T13:50:31;7.96;71.76
13091;DHT22;6611;52.604;13.438;2024-01-27T13:55:33;7.82;72.40
13091;DHT22;6611;52.604;13.438;2024-01-27T14:00:36;7.68;72.82
13091;DHT22;6611;52.604;13.438;2024-01-27T14:05:38;7.76;72.60
13091;DHT22;6611;52.604;13.438;2024-01-27T14:10:41;7.69;73.08
13091;DHT22;6611;52.604;13.438;2024-01-27T14:15:45;7.58;73.44
13091;DHT22;6611;52.604;13.438;2024-01-27T14:20:46;7.61;73.39
13091;DHT22;6611;52.604;13.438;2024-01-27T14:25:49;7.61;73.12
13091;DHT22;6611;52.604;13.438;2024-01-27T14:30:52;7.62;73.12
13091;DHT22;6611;52.604;13.438;2024-01-27T14:35:53;7.69;72.95
13091;DHT22;6611;52.604;13.438;2024-01-27T14:40:55;7.61;73.30
13091;DHT22;6611;52.604;13.438;2024-01-27T14:45:58;7.54;73.60
13091;DHT22;6611;52.604;13.438;2024-01-27T14:51:00;7.52;73.61
13091;DHT22;6611;52.604;13.438;2024-01-27T14:56:03;7.46;73.87
13091;DHT22;6611;52.604;13.438;2024-01-27T15:01:07;7.41;73.87
13091;DHT22;6611;52.604;13.438;2024-01-27T15:06:08;7.46;74.05
13091;DHT22;6611;52.604;13.438;2024-01-27T15:11:10;7.43;74.30
13091;DHT22;6611;52.604;13.438;2024-01-27T15:16:13;7.44;74.27
13091;DHT22;6611;52.604;13.438;2024-01-27T15:21:15;7.23;75.14
13091;DHT22;6611;52.604;13.438;2024-01-27T15:26:17;7.12;75.91
13091;DHT22;6611;52.604;13.438;2024-01-27T15:31:20;7.10;75.94
13091;DHT22;6611;52.604;13.438;2024-01-27T15:36:21;7.06;75.97
13091;DHT22;6611;52.604;13.438;2024-01-27T15:41:23;7.17;75.57
13091;DHT22;6611;52.604;13.438;2024-01-27T15:46:26;7.20;75.71
13091;DHT22;6611;52.604;13.438;2024-01-27T15:51:28;7.10;76.21
13091;DHT22;6611;52.604;13.438;2024-01-27T15:56:29;7.06;76.58
13091;DHT22;6611;52.604;13.438;2024-01-27T16:01:32;6.85;77.34
13091;DHT22;6611;52.604;13.438;2024-01-27T16:06:34;6.79;77.38
13091;DHT22;6611;52.604;13.438;2024-01-27T16:11:36;6.60;77.52
13091;DHT22;6611;52.604;13.438;2024-01-27T16:16:40;6.51;77.66
13091;DHT22;6611;52.604;13.438;2024-01-27T16:21:41;6.38;77.75
13091;DHT22;6611;52.604;13.438;2024-01-27T16:26:43;6.37;77.41
13091;DHT22;6611;52.604;13.438;2024-01-27T16:31:46;6.38;77.81
13091;DHT22;6611;52.604;13.438;2024-01-27T16:36:48;6.26;77.58
13091;DHT22;6611;52.604;13.438;2024-01-27T16:41:49;6.37;76.89
13091;DHT22;6611;52.604;13.438;2024-01-27T16:46:52;6.30;77.12
13091;DHT22;6611;52.604;13.438;2024-01-27T16:51:54;6.29;77.91
13091;DHT22;6611;52.604;13.438;2024-01-27T16:56:55;6.57;76.22
13091;DHT22;6611;52.604;13.438;2024-01-27T17:01:58;6.34;76.43
13091;DHT22;6611;52.604;13.438;2024-01-27T17:07:00;6.13;76.84
13091;DHT22;6611;52.604;13.438;2024-01-27T17:12:04;5.90;77.51
13091;DHT22;6611;52.604;13.438;2024-01-27T17:17:10;5.65;77.91
13091;DHT22;6611;52.604;13.438;2024-01-27T17:22:12;5.67;78.40
13091;DHT22;6611;52.604;13.438;2024-01-27T17:27:13;5.42;78.40
13091;DHT22;6611;52.604;13.438;2024-01-27T17:32:16;5.15;79.16
13091;DHT22;6611;52.604;13.438;2024-01-27T17:37:18;5.05;79.57
13091;DHT22;6611;52.604;13.438;2024-01-27T17:42:20;4.96;79.73
13091;DHT22;6611;52.604;13.438;2024-01-27T17:47:22;4.94;80.11
13091;DHT22;6611;52.604;13.438;2024-01-27T17:52:24;4.89;80.02
13091;DHT22;6611;52.604;13.438;2024-01-27T17:57:27;5.09;79.77
13091;DHT22;6611;52.604;13.438;2024-01-27T18:02:30;5.22;79.36
13091;DHT22;6611;52.604;13.438;2024-01-27T18:07:32;5.22;79.33
13091;DHT22;6611;52.604;13.438;2024-01-27T18:12:34;5.12;79.08
13091;DHT22;6611;52.604;13.438;2024-01-27T18:17:37;5.23;78.84
13091;DHT22;6611;52.604;13.438;2024-01-27T18:22:39;5.26;78.73
13091;DHT22;6611;52.604;13.438;2024-01-27T18:27:40;5.11;78.95
13091;DHT22;6611;52.604;13.438;2024-01-27T18:32:44;5.15;79.06
13091;DHT22;6611;52.604;13.438;2024-01-27T18:37:46;5.28;78.67
13091;DHT22;6611;52.604;13.438;2024-01-27T18:42:48;5.30;78.46
13091;DHT22;6611;52.604;13.438;2024-01-27T18:47:51;5.15;78.74
13091;DHT22;6611;52.604;13.438;2024-01-27T18:52:52;5.11;78.57
13091;DHT22;6611;52.604;13.438;2024-01-27T18:57:54;5.05;78.87
13091;DHT22;6611;52.604;13.438;2024-01-27T19:02:57;5.05;78.80
13091;DHT22;6611;52.604;13.438;2024-01-27T19:07:59;5.15;78.67
13091;DHT22;6611;52.604;13.438;2024-01-27T19:13:00;5.08;78.75
13091;DHT22;6611;52.604;13.438;2024-01-27T19:18:04;5.09;78.83
13091;DHT22;6611;52.604;13.438;2024-01-27T19:23:06;4.91;79.26
13091;DHT22;6611;52.604;13.438;2024-01-27T19:28:08;4.73;79.71
13091;DHT22;6611;52.604;13.438;2024-01-27T19:33:11;4.59;80.11
13091;DHT22;6611;52.604;13.438;2024-01-27T19:38:12;4.80;79.70
13091;DHT22;6611;52.604;13.438;2024-01-27T19:43:15;4.89;79.31
13091;DHT22;6611;52.604;13.438;2024-01-27T19:48:19;4.81;79.15
13091;DHT22;6611;52.604;13.438;2024-01-27T19:53:21;4.64;79.79
13091;DHT22;6611;52.604;13.438;2024-01-27T19:58:22;4.73;79.69
13091;DHT22;6611;52.604;13.438;2024-01-27T20:03:27;4.56;79.97
13091;DHT22;6611;52.604;13.438;2024-01-27T20:08:28;4.57;80.17
13091;DHT22;6611;52.604;13.438;2024-01-27T20:13:30;4.56;79.83
13091;DHT22;6611;52.604;13.438;2024-01-27T20:18:33;4.60;79.96
13091;DHT22;6611;52.604;13.438;2024-01-27T20:23:35;4.52;80.35
13091;DHT22;6611;52.604;13.438;2024-01-27T20:28:38;4.45;80.47
13091;DHT22;6611;52.604;13.438;2024-01-27T20:33:41;4.28;80.92
13091;DHT22;6611;52.604;13.438;2024-01-27T20:38:42;4.29;80.64
13091;DHT22;6611;52.604;13.438;2024-01-27T20:43:44;4.25;80.95
13091;DHT22;6611;52.604;13.438;2024-01-27T20:48:48;4.29;81.01
13091;DHT22;6611;52.604;13.438;2024-01-27T20:53:49;4.22;81.15
13091;DHT22;6611;52.604;13.438;2024-01-27T20:58:51;4.15;81.12
13091;DHT22;6611;52.604;13.438;2024-01-27T21:03:54;4.14;81.57
13091;DHT22;6611;52.604;13.438;2024-01-27T21:08:58;4.19;81.12
13091;DHT22;6611;52.604;13.438;2024-01-27T21:13:59;4.26;81.08
13091;DHT22;6611;52.604;13.438;2024-01-27T21:19:02;4.25;81.18
13091;DHT22;6611;52.604;13.438;2024-01-27T21:24:05;4.21;81.08
13091;DHT22;6611;52.604;13.438;2024-01-27T21:29:08;4.22;81.55
13091;DHT22;6611;52.604;13.438;2024-01-27T21:34:11;4.26;81.07
13091;DHT22;6611;52.604;13.438;2024-01-27T21:39:13;4.39;80.73
13091;DHT22;6611;52.604;13.438;2024-01-27T21:44:15;4.38;80.82
13091;DHT22;6611;52.604;13.438;2024-01-27T21:49:18;4.48;80.61
13091;DHT22;6611;52.604;13.438;2024-01-27T21:54:20;4.43;80.67
13091;DHT22;6611;52.604;13.438;2024-01-27T21:59:22;4.42;80.79
13091;DHT22;6611;52.604;13.438;2024-01-27T22:04:25;4.45;80.74
13091;DHT22;6611;52.604;13.438;2024-01-27T22:09:27;4.54;80.47
13091;DHT22;6611;52.604;13.438;2024-01-27T22:14:28;4.48;80.61
13091;DHT22;6611;52.604;13.438;2024-01-27T22:19:31;4.46;80.39
13091;DHT22;6611;52.604;13.438;2024-01-27T22:24:33;4.52;80.21
13091;DHT22;6611;52.604;13.438;2024-01-27T22:29:36;4.43;80.15
13091;DHT22;6611;52.604;13.438;2024-01-27T22:34:39;4.48;80.07
13091;DHT22;6611;52.604;13.438;2024-01-27T22:39:41;4.33;79.81
13091;DHT22;6611;52.604;13.438;2024-01-27T22:44:43;4.02;80.72
13091;DHT22;6611;52.604;13.438;2024-01-27T22:49:46;3.97;80.96
13091;DHT22;6611;52.604;13.438;2024-01-27T22:54:47;3.76;81.18
13091;DHT22;6611;52.604;13.438;2024-01-27T22:59:49;3.55;81.26
13091;DHT22;6611;52.604;13.438;2024-01-27T23:04:52;3.35;82.08
13091;DHT22;6611;52.604;13.438;2024-01-27T23:09:54;3.25;82.44
13091;DHT22;6611;52.604;13.438;2024-01-27T23:14:55;3.15;82.32
13091;DHT22;6611;52.604;13.438;2024-01-27T23:19:58;3.08;82.21
13091;DHT22;6611;52.604;13.438;2024-01-27T23:25:01;2.94;82.12
13091;DHT22;6611;52.604;13.438;2024-01-27T23:30:04;2.87;81.89
13091;DHT22;6611;52.604;13.438;2024-01-27T23:35:08;2.76;82.00
13091;DHT22;6611;52.604;13.438;2024-01-27T23:40:11;2.75;81.79
13091;DHT22;6611;52.604;13.438;2024-01-27T23:45:13;2.73;81.41
13091;DHT22;6611;52.604;13.438;2024-01-27T23:50:16;2.63;81.91
13091;DHT22;6611;52.604;13.438;2024-01-27T23:55:19;2.57;83.00
